Time;durP1;ratioP1;P1;durP2;ratioP2;P2;SDS_P1;SDS_P2;PMS_P1;PMS_P2;Temp;Humidity;BMP_temperature;BMP_pressure;BME280_temperature;BME280_humidity;BME280_pressure;Samples;Min_cycle;Max_cycle;Signal;HPM_P1;HPM_P2
2021/05/11 00:02:04;;;;;;;7.82;1.90;;;28.20;90.50;;;;;;5104350;28;20273;-52
2021/05/11 00:04:30;;;;;;;6.57;1.60;;;28.10;90.50;;;;;;5104665;28;20023;-54
2021/05/11 00:06:57;;;;;;;7.22;1.67;;;28.10;90.50;;;;;;5103688;28;20110;-57
2021/05/11 00:09:24;;;;;;;8.95;1.88;;;28.10;90.50;;;;;;5104593;28;20020;-56
2021/05/11 00:11:50;;;;;;;7.45;1.92;;;28.10;90.60;;;;;;5086344;28;20024;-53
2021/05/11 00:14:17;;;;;;;32.65;3.47;;;28.00;90.80;;;;;;5104330;28;20024;-55
2021/05/11 00:16:44;;;;;;;17.98;2.20;;;28.00;90.90;;;;;;5105183;28;20028;-56
2021/05/11 00:19:12;;;;;;;7.43;1.70;;;28.00;90.90;;;;;;5108883;28;20024;-51
2021/05/11 00:21:39;;;;;;;6.13;2.20;;;28.00;90.90;;;;;;5108209;28;20332;-52
2021/05/11 00:24:06;;;;;;;6.88;2.50;;;28.00;91.00;;;;;;5108628;28;20035;-46
2021/05/11 00:26:34;;;;;;;7.72;2.10;;;28.00;91.10;;;;;;5106815;28;20038;-45
2021/05/11 00:29:01;;;;;;;6.85;1.90;;;27.90;91.30;;;;;;5107319;28;20020;-50
2021/05/11 00:31:27;;;;;;;7.63;1.70;;;27.90;91.40;;;;;;5107837;28;20020;-51
2021/05/11 00:33:54;;;;;;;4.50;1.52;;;27.80;91.30;;;;;;5090213;28;20028;-46
2021/05/11 00:36:21;;;;;;;5.57;1.67;;;27.80;91.30;;;;;;5107286;28;20044;-46
2021/05/11 00:38:49;;;;;;;5.90;1.70;;;27.70;91.30;;;;;;5107676;28;20204;-46
2021/05/11 00:41:17;;;;;;;7.40;1.63;;;27.70;91.30;;;;;;5107764;28;20020;-50
2021/05/11 00:43:45;;;;;;;11.07;2.08;;;27.70;91.40;;;;;;5107595;28;20028;-48
2021/05/11 00:46:13;;;;;;;8.05;1.33;;;27.60;91.40;;;;;;5106825;28;20024;-50
2021/05/11 00:48:40;;;;;;;8.35;1.30;;;27.60;91.30;;;;;;5120573;28;20016;-48
2021/05/11 00:51:07;;;;;;;6.55;1.30;;;27.60;91.30;;;;;;5124633;28;20304;-55
2021/05/11 00:53:37;;;;;;;8.13;1.52;;;27.60;91.20;;;;;;5127285;28;20031;-54
2021/05/11 00:56:06;;;;;;;9.88;1.67;;;27.50;91.20;;;;;;5127341;28;20324;-53
2021/05/11 00:58:34;;;;;;;13.90;1.52;;;27.50;91.20;;;;;;5123738;28;20091;-51
2021/05/11 01:01:00;;;;;;;11.38;2.05;;;27.50;91.10;;;;;;5106425;28;20047;-62
2021/05/11 01:03:27;;;;;;;8.57;1.70;;;27.40;91.20;;;;;;5118685;28;20023;-48
2021/05/11 01:05:54;;;;;;;7.97;1.60;;;27.40;91.10;;;;;;5121761;28;20204;-48
2021/05/11 01:08:20;;;;;;;9.73;1.63;;;27.40;91.00;;;;;;5126395;28;20299;-52
2021/05/11 01:10:47;;;;;;;5.63;1.17;;;27.40;91.00;;;;;;5127568;28;20015;-50
2021/05/11 01:13:14;;;;;;;11.93;1.90;;;27.40;91.10;;;;;;5127433;28;20027;-47
2021/05/11 01:15:42;;;;;;;5.50;1.80;;;27.30;91.20;;;;;;5123345;28;20019;-50
2021/05/11 01:18:13;;;;;;;7.97;2.03;;;27.30;91.40;;;;;;5127643;28;20393;-48
2021/05/11 01:20:47;;;;;;;7.57;1.65;;;27.30;91.20;;;;;;5127222;28;20088;-55
2021/05/11 01:26:07;;;;;;;11.18;2.30;;;27.40;91.30;;;;;;5125156;28;20049;-46
2021/05/11 01:28:54;;;;;;;8.75;1.70;;;27.40;91.20;;;;;;5123824;28;20016;-46
2021/05/11 01:50:33;;;;;;;7.45;2.30;;;27.30;90.10;;;;;;5110458;28;20347;-43
2021/05/11 01:53:09;;;;;;;8.43;1.70;;;27.30;90.10;;;;;;5126575;28;20027;-51
2021/05/11 02:23:00;;;;;;;11.48;2.78;;;27.30;90.70;;;;;;5125924;28;20338;-51
2021/05/11 02:25:28;;;;;;;7.05;2.42;;;27.30;90.70;;;;;;5107989;28;20089;-54
2021/05/11 02:27:56;;;;;;;8.15;2.50;;;27.30;90.70;;;;;;5126113;28;20030;-52
2021/05/11 02:30:23;;;;;;;9.32;2.85;;;27.30;90.60;;;;;;5140596;27;20038;-51
2021/05/11 02:32:50;;;;;;;13.07;2.78;;;27.30;90.60;;;;;;5128183;27;20023;-52
2021/05/11 02:35:18;;;;;;;10.07;2.70;;;27.20;90.60;;;;;;5146239;27;20379;-53
2021/05/11 02:37:46;;;;;;;12.32;2.75;;;27.20;90.70;;;;;;5134929;27;20027;-54
2021/05/11 02:40:16;;;;;;;15.80;3.33;;;27.20;90.70;;;;;;5125582;28;20324;-53
2021/05/11 02:42:45;;;;;;;10.15;3.03;;;27.20;90.70;;;;;;5125823;28;20061;-56
2021/05/11 02:45:14;;;;;;;7.65;2.63;;;27.20;90.80;;;;;;5125580;28;20324;-54
2021/05/11 02:47:48;;;;;;;10.07;3.03;;;27.20;90.80;;;;;;5125043;28;20316;-58
2021/05/11 02:50:20;;;;;;;7.50;2.50;;;27.20;90.70;;;;;;5124348;28;20068;-54
2021/05/11 02:52:48;;;;;;;5.88;1.85;;;27.20;90.60;;;;;;5105666;28;20027;-51
2021/05/11 02:55:16;;;;;;;8.43;2.35;;;27.10;90.40;;;;;;5131918;27;20051;-54
2021/05/11 02:57:44;;;;;;;12.23;1.70;;;27.20;90.40;;;;;;5124520;27;20216;-56
2021/05/11 03:00:13;;;;;;;19.05;2.17;;;27.10;90.30;;;;;;5122452;28;20055;-53
2021/05/11 03:02:40;;;;;;;11.55;1.83;;;27.20;90.40;;;;;;5121251;28;20285;-57
2021/05/11 03:05:07;;;;;;;16.70;2.70;;;27.10;90.40;;;;;;5123863;28;20027;-52
2021/05/11 03:07:34;;;;;;;42.65;4.55;;;27.10;90.50;;;;;;5123468;28;20067;-54
2021/05/11 03:10:01;;;;;;;28.27;3.85;;;27.10;90.60;;;;;;5125333;27;20216;-52
2021/05/11 03:12:28;;;;;;;18.52;2.60;;;27.00;90.80;;;;;;5134273;27;20322;-55
2021/05/11 03:14:54;;;;;;;26.60;2.63;;;27.00;90.90;;;;;;5133081;27;20099;-53
2021/05/11 03:17:22;;;;;;;12.80;1.77;;;27.00;91.00;;;;;;5129071;27;20022;-53
2021/05/11 03:19:49;;;;;;;15.82;1.90;;;27.00;91.00;;;;;;5124258;28;20027;-53
2021/05/11 03:22:15;;;;;;;10.90;1.70;;;27.00;91.00;;;;;;5124905;27;20027;-53
2021/05/11 03:24:45;;;;;;;6.35;1.77;;;27.00;91.00;;;;;;5125211;28;20019;-55
2021/05/11 03:27:13;;;;;;;14.27;2.22;;;27.00;91.10;;;;;;5124587;28;20019;-52
2021/05/11 03:29:41;;;;;;;13.48;1.63;;;26.90;91.20;;;;;;5106420;28;20076;-54
2021/05/11 03:32:09;;;;;;;11.45;1.33;;;26.90;91.20;;;;;;5124332;28;20030;-53
2021/05/11 03:34:36;;;;;;;11.57;1.75;;;26.90;91.20;;;;;;5124777;28;20047;-58
2021/05/11 03:37:04;;;;;;;23.42;2.30;;;26.90;91.20;;;;;;5123413;28;20055;-54
2021/05/11 03:39:36;;;;;;;15.98;2.13;;;26.90;91.20;;;;;;5125052;28;20024;-53
2021/05/11 03:42:09;;;;;;;14.88;1.90;;;26.90;91.30;;;;;;5124567;28;20025;-55
2021/05/11 03:44:36;;;;;;;17.33;2.17;;;26.90;91.30;;;;;;5124199;28;20065;-58
2021/05/11 03:47:03;;;;;;;18.38;2.85;;;26.90;91.30;;;;;;5124605;28;20027;-58
2021/05/11 03:49:30;;;;;;;17.15;2.60;;;26.90;91.20;;;;;;5124791;28;20019;-57
2021/05/11 03:51:57;;;;;;;25.30;2.75;;;26.90;91.30;;;;;;5123716;28;20019;-56
2021/05/11 03:54:24;;;;;;;21.27;2.42;;;26.90;91.20;;;;;;5123520;28;20019;-53
2021/05/11 03:56:51;;;;;;;43.33;30.52;;;26.90;91.10;;;;;;5123745;28;20027;-56
2021/05/11 03:59:19;;;;;;;178.80;145.40;;;26.90;91.10;;;;;;5124416;28;20023;-52
2021/05/11 04:01:46;;;;;;;247.35;210.18;;;26.90;91.20;;;;;;5124986;28;20055;-58
2021/05/11 04:07:36;;;;;;;260.70;200.98;;;26.90;91.10;;;;;;5124664;28;20066;-59
2021/05/11 04:10:10;;;;;;;223.70;160.57;;;26.80;91.00;;;;;;5124575;28;20035;-53
2021/05/11 04:17:54;;;;;;;100.95;73.15;;;26.80;91.20;;;;;;5125023;28;20138;-52
2021/05/11 04:20:21;;;;;;;77.20;53.85;;;26.80;91.20;;;;;;5124760;28;20047;-55
2021/05/11 04:22:47;;;;;;;52.60;35.80;;;26.80;91.20;;;;;;5124575;28;20030;-51
2021/05/11 04:25:15;;;;;;;40.00;26.52;;;26.80;91.20;;;;;;5124128;28;20023;-52
2021/05/11 04:27:41;;;;;;;28.88;17.25;;;26.80;91.30;;;;;;5123779;28;20069;-53
2021/05/11 04:30:09;;;;;;;23.45;13.88;;;26.80;91.20;;;;;;5123748;28;20056;-52
2021/05/11 04:32:36;;;;;;;21.83;10.90;;;26.80;91.30;;;;;;5124137;28;20061;-56
2021/05/11 04:35:02;;;;;;;16.95;5.75;;;26.80;91.40;;;;;;5124617;28;20084;-54
2021/05/11 04:37:29;;;;;;;11.50;3.78;;;26.80;91.40;;;;;;5124248;28;20015;-53
2021/05/11 04:39:56;;;;;;;11.77;3.22;;;26.80;91.50;;;;;;5124717;28;20219;-57
2021/05/11 04:42:23;;;;;;;9.73;2.78;;;26.70;91.20;;;;;;5124448;28;20293;-59
2021/05/11 04:44:51;;;;;;;11.30;2.95;;;26.70;91.20;;;;;;5124759;28;20020;-52
2021/05/11 04:48:00;;;;;;;6.03;2.17;;;26.70;91.30;;;;;;5124424;28;20264;-52
2021/05/11 04:50:08;;;;;;;7.38;2.13;;;26.70;91.30;;;;;;5116157;28;20078;-53
2021/05/11 04:52:35;;;;;;;10.13;2.00;;;26.70;91.20;;;;;;5124403;28;20019;-52
2021/05/11 04:55:02;;;;;;;7.45;1.52;;;26.70;91.40;;;;;;5124463;28;20026;-52
2021/05/11 04:57:28;;;;;;;8.93;2.08;;;26.70;91.30;;;;;;5124132;28;20171;-54
2021/05/11 04:59:55;;;;;;;7.78;1.42;;;26.70;91.40;;;;;;5124561;28;20050;-53
2021/05/11 05:02:22;;;;;;;6.95;1.30;;;26.70;91.40;;;;;;5125821;28;20113;-53
2021/05/11 05:04:49;;;;;;;7.88;1.35;;;26.70;91.40;;;;;;5128502;28;20023;-54
2021/05/11 05:07:15;;;;;;;13.18;1.25;;;26.70;91.50;;;;;;5127962;28;20074;-53
2021/05/11 05:09:42;;;;;;;6.72;1.40;;;26.70;91.60;;;;;;5128592;28;20068;-56
2021/05/11 05:12:09;;;;;;;7.90;1.40;;;26.70;91.60;;;;;;5127828;28;20030;-55
2021/05/11 05:14:35;;;;;;;11.07;1.27;;;26.70;91.60;;;;;;5128547;28;20016;-53
2021/05/11 05:17:02;;;;;;;8.07;1.70;;;26.70;91.50;;;;;;5128046;28;20030;-53
2021/05/11 05:19:28;;;;;;;8.98;1.60;;;26.70;91.50;;;;;;5128179;28;20199;-59
2021/05/11 05:21:55;;;;;;;8.68;1.50;;;26.70;91.50;;;;;;5127950;28;20012;-61
2021/05/11 05:24:27;;;;;;;6.97;1.50;;;26.70;91.50;;;;;;5128290;28;20019;-55
2021/05/11 05:26:56;;;;;;;12.68;1.38;;;26.70;91.50;;;;;;5127800;28;20090;-53
2021/05/11 05:29:23;;;;;;;7.07;1.80;;;26.70;91.60;;;;;;5127550;28;20028;-55
2021/05/11 05:31:49;;;;;;;9.45;1.23;;;26.60;91.60;;;;;;5127454;28;20019;-57
2021/05/11 05:34:16;;;;;;;6.63;1.77;;;26.60;91.60;;;;;;5127800;28;20031;-53
2021/05/11 05:36:43;;;;;;;10.75;1.48;;;26.60;91.60;;;;;;5127727;28;20024;-52
2021/05/11 05:39:09;;;;;;;11.43;1.70;;;26.60;91.60;;;;;;5127846;28;20023;-53
2021/05/11 05:41:36;;;;;;;9.75;1.70;;;26.60;91.60;;;;;;5127389;28;20061;-52
2021/05/11 05:44:03;;;;;;;12.45;1.98;;;26.60;91.60;;;;;;5127473;28;20031;-57
2021/05/11 05:49:59;;;;;;;12.85;1.75;;;26.60;91.80;;;;;;5127299;28;20060;-53
2021/05/11 05:52:34;;;;;;;9.45;1.50;;;26.60;91.80;;;;;;5127047;28;20023;-54
2021/05/11 05:55:04;;;;;;;6.45;1.55;;;26.60;91.80;;;;;;5127251;28;20255;-56
2021/05/11 05:57:31;;;;;;;12.02;1.80;;;26.60;91.80;;;;;;5126903;28;20064;-55
2021/05/11 05:59:57;;;;;;;7.28;1.25;;;26.50;91.70;;;;;;5127219;28;20023;-52
2021/05/11 06:02:26;;;;;;;8.23;1.30;;;26.50;91.70;;;;;;5127059;28;20072;-57
2021/05/11 06:04:52;;;;;;;7.72;1.27;;;26.50;91.80;;;;;;5118638;28;20024;-50
2021/05/11 06:07:19;;;;;;;9.10;1.88;;;26.50;91.80;;;;;;5127074;28;20355;-53
2021/05/11 06:09:46;;;;;;;6.95;1.30;;;26.50;91.70;;;;;;5126964;28;20310;-53
2021/05/11 06:12:20;;;;;;;6.13;1.30;;;26.50;91.70;;;;;;5126818;28;20309;-55
2021/05/11 06:17:00;;;;;;;8.57;1.52;;;26.50;91.70;;;;;;5126215;28;20312;-52
2021/05/11 06:17:36;;;;;;;5.43;1.40;;;26.40;91.80;;;;;;5126635;28;20095;-53
2021/05/11 06:20:04;;;;;;;9.00;1.42;;;26.40;91.80;;;;;;5126798;28;20019;-54
2021/05/11 06:22:30;;;;;;;7.65;1.23;;;26.40;91.90;;;;;;5126524;28;20095;-54
2021/05/11 06:24:57;;;;;;;5.85;1.27;;;26.40;91.90;;;;;;5126524;28;20027;-53
2021/05/11 06:27:23;;;;;;;6.05;1.20;;;26.40;91.90;;;;;;5126598;28;20336;-54
2021/05/11 06:29:56;;;;;;;10.98;1.30;;;26.40;91.90;;;;;;5126533;28;20023;-55
2021/05/11 06:32:24;;;;;;;5.70;1.23;;;26.40;91.90;;;;;;5126755;28;20403;-56
2021/05/11 06:34:57;;;;;;;12.45;1.33;;;26.40;91.90;;;;;;5127083;28;20035;-53
2021/05/11 06:37:24;;;;;;;2.70;1.20;;;26.40;91.80;;;;;;5126392;28;20015;-54
2021/05/11 06:39:51;;;;;;;12.45;1.92;;;26.40;91.80;;;;;;5126417;28;20028;-53
2021/05/11 06:42:21;;;;;;;9.70;1.65;;;26.40;91.70;;;;;;5126366;28;20088;-57
2021/05/11 06:50:12;;;;;;;10.13;1.60;;;26.30;91.70;;;;;;5126777;28;20033;-57
2021/05/11 06:52:47;;;;;;;7.50;1.65;;;26.40;91.80;;;;;;5125868;28;20039;-56
2021/05/11 06:55:17;;;;;;;10.90;1.65;;;26.40;91.90;;;;;;5125912;28;20023;-53
2021/05/11 06:57:43;;;;;;;7.00;1.52;;;26.40;92.00;;;;;;5125989;28;20023;-58
2021/05/11 07:00:10;;;;;;;8.38;1.48;;;26.30;92.00;;;;;;5125976;28;20064;-52
2021/05/11 07:02:37;;;;;;;10.60;1.60;;;26.40;92.20;;;;;;5125786;28;20026;-52
2021/05/11 07:05:04;;;;;;;9.13;1.55;;;26.30;92.30;;;;;;5126150;28;20039;-53
2021/05/11 07:07:32;;;;;;;11.60;1.83;;;26.40;92.40;;;;;;5125339;28;20054;-60
2021/05/11 07:10:08;;;;;;;8.77;1.48;;;26.40;92.50;;;;;;5125738;28;20130;-52
2021/05/11 07:15:21;;;;;;;9.23;1.40;;;26.40;92.50;;;;;;5125727;28;20057;-55
2021/05/11 07:17:47;;;;;;;13.60;1.67;;;26.40;92.60;;;;;;5125587;28;20019;-54
2021/05/11 07:20:14;;;;;;;7.07;1.42;;;26.40;92.70;;;;;;5124575;28;20031;-55
2021/05/11 07:22:41;;;;;;;7.97;1.67;;;26.40;92.70;;;;;;5124571;28;20016;-54
2021/05/11 07:25:11;;;;;;;12.63;2.58;;;26.40;92.90;;;;;;5124317;28;20020;-56
2021/05/11 07:30:29;;;;;;;15.25;2.30;;;26.40;93.10;;;;;;5125526;28;20022;-56
2021/05/11 07:32:55;;;;;;;10.55;2.53;;;26.40;93.40;;;;;;5125185;28;20028;-60
2021/05/11 07:35:22;;;;;;;8.63;2.00;;;26.40;93.40;;;;;;5125147;28;20068;-53
2021/05/11 07:37:49;;;;;;;6.25;1.67;;;26.40;93.40;;;;;;5125100;28;20046;-57
2021/05/11 07:40:16;;;;;;;11.18;2.20;;;26.30;93.30;;;;;;5124765;28;20030;-54
2021/05/11 07:42:43;;;;;;;11.80;1.67;;;26.40;93.40;;;;;;5124652;28;20027;-53
2021/05/11 07:45:15;;;;;;;12.30;2.10;;;26.30;93.20;;;;;;5124833;28;20068;-59
2021/05/11 07:48:38;;;;;;;10.02;2.08;;;26.40;93.30;;;;;;5124676;28;20243;-53
2021/05/11 08:04:36;;;;;;;6.57;1.40;;;26.30;93.10;;;;;;5125129;28;20181;-52
2021/05/11 08:17:38;;;;;;;7.72;1.50;;;26.20;93.00;;;;;;5107782;28;20308;-54
2021/05/11 08:22:54;;;;;;;4.30;1.42;;;26.20;93.00;;;;;;5124121;28;20079;-52
2021/05/11 08:28:11;;;;;;;7.78;1.52;;;26.10;92.70;;;;;;5124696;28;20054;-52
2021/05/11 08:30:38;;;;;;;6.95;1.23;;;26.10;92.50;;;;;;5124485;28;20024;-55
2021/05/11 08:33:05;;;;;;;9.38;1.20;;;26.00;92.40;;;;;;5124450;28;20019;-53
2021/05/11 08:35:31;;;;;;;10.63;1.42;;;26.00;92.40;;;;;;5124550;28;20103;-56
2021/05/11 08:37:58;;;;;;;9.02;1.67;;;26.00;92.30;;;;;;5127464;28;20030;-57
2021/05/11 08:40:25;;;;;;;9.07;1.67;;;26.00;92.30;;;;;;5128569;28;20065;-60
2021/05/11 08:42:52;;;;;;;7.60;1.85;;;26.00;92.30;;;;;;5128073;28;20024;-61
2021/05/11 08:45:19;;;;;;;9.77;1.80;;;25.90;92.20;;;;;;5128627;28;20019;-54
2021/05/11 08:47:54;;;;;;;7.65;1.10;;;25.90;92.30;;;;;;5128048;28;20116;-58
2021/05/11 08:50:36;;;;;;;7.38;1.08;;;25.80;92.20;;;;;;5128690;28;20260;-52
2021/05/11 10:27:02;;;;;;;3.13;1.13;;;25.70;92.30;;;;;;5126857;28;20048;-52
2021/05/11 10:48:32;;;;;;;2.00;0.50;;;25.60;92.10;;;;;;5126410;28;20027;-53
2021/05/11 10:51:05;;;;;;;3.67;0.65;;;25.60;92.10;;;;;;5125971;28;20023;-56
2021/05/11 10:53:57;;;;;;;2.95;0.60;;;25.60;91.90;;;;;;5126113;28;20030;-58
2021/05/11 11:02:02;;;;;;;3.13;0.80;;;25.60;91.90;;;;;;5069996;28;20381;-52
2021/05/11 11:04:43;;;;;;;5.93;0.80;;;25.50;91.80;;;;;;5125734;28;20031;-55
2021/05/11 11:07:11;;;;;;;4.38;0.80;;;25.50;91.80;;;;;;5125170;28;20051;-52
2021/05/11 11:09:39;;;;;;;3.30;0.90;;;25.50;91.60;;;;;;5125860;28;20027;-57
2021/05/11 11:12:09;;;;;;;5.10;0.90;;;25.50;91.70;;;;;;5123343;28;20049;-52
2021/05/11 11:14:43;;;;;;;3.72;0.70;;;25.50;91.60;;;;;;5124447;28;20328;-54
2021/05/11 11:17:16;;;;;;;4.43;1.35;;;25.50;91.70;;;;;;5125114;28;20200;-56
2021/05/11 11:19:53;;;;;;;6.07;1.00;;;25.50;91.70;;;;;;5125647;28;20058;-56
2021/05/11 11:25:06;;;;;;;6.55;1.00;;;25.50;91.80;;;;;;5125121;28;20030;-60
2021/05/11 11:27:34;;;;;;;2.78;0.80;;;25.50;91.70;;;;;;5124820;28;20012;-58
2021/05/11 11:30:11;;;;;;;6.95;1.20;;;25.50;91.70;;;;;;5124752;28;20020;-60
2021/05/11 11:32:39;;;;;;;2.08;1.00;;;25.50;91.70;;;;;;5124597;28;20020;-54
2021/05/11 11:35:11;;;;;;;2.97;1.10;;;25.50;91.80;;;;;;5124475;28;20337;-54
2021/05/11 11:37:38;;;;;;;2.30;0.88;;;25.50;91.60;;;;;;5124716;28;20023;-54
2021/05/11 11:40:10;;;;;;;3.47;1.20;;;25.50;91.60;;;;;;5124644;28;20030;-55
2021/05/11 11:42:40;;;;;;;3.78;0.90;;;25.50;91.50;;;;;;5123825;28;20061;-56
2021/05/11 11:45:30;;;;;;;5.95;1.40;;;25.50;91.50;;;;;;5123993;28;20030;-56
2021/05/11 11:48:01;;;;;;;4.25;1.58;;;25.50;91.50;;;;;;5111698;28;20212;-56
2021/05/11 11:50:31;;;;;;;8.63;1.25;;;25.50;91.50;;;;;;5124030;28;20024;-53
2021/05/11 11:53:07;;;;;;;4.22;0.88;;;25.50;91.40;;;;;;5124247;28;20098;-59
2021/05/11 11:58:03;;;;;;;2.80;1.17;;;25.50;91.30;;;;;;5124626;28;20047;-53
2021/05/11 12:00:35;;;;;;;4.18;1.40;;;25.50;91.30;;;;;;5124093;28;20022;-51
2021/05/11 12:03:10;;;;;;;5.03;1.40;;;25.50;91.30;;;;;;5124201;28;20080;-52
2021/05/11 12:05:41;;;;;;;5.10;1.27;;;25.50;91.30;;;;;;5123921;28;20024;-57
2021/05/11 12:10:55;;;;;;;4.97;1.23;;;25.50;91.20;;;;;;5124291;28;20049;-56
2021/05/11 12:13:24;;;;;;;3.15;1.15;;;25.50;91.10;;;;;;5123751;28;20043;-51
2021/05/11 12:16:10;;;;;;;5.63;1.40;;;25.50;91.00;;;;;;5124044;28;20315;-55
2021/05/11 12:18:38;;;;;;;3.17;1.10;;;25.50;91.10;;;;;;5124275;28;20027;-52
2021/05/11 12:21:07;;;;;;;5.57;1.30;;;25.60;90.90;;;;;;5124181;28;20078;-62
2021/05/11 12:23:34;;;;;;;4.00;1.10;;;25.50;90.90;;;;;;5124284;28;20168;-52
2021/05/11 12:26:06;;;;;;;2.78;1.00;;;25.50;90.80;;;;;;5122325;28;20012;-52
2021/05/11 12:28:40;;;;;;;4.00;0.90;;;25.60;90.80;;;;;;5117045;28;20019;-52
2021/05/11 12:31:12;;;;;;;3.25;0.80;;;25.60;90.70;;;;;;5120364;28;20024;-56
2021/05/11 12:33:43;;;;;;;3.90;1.00;;;25.60;90.40;;;;;;5115264;28;20031;-51
2021/05/11 12:36:25;;;;;;;3.25;0.90;;;25.60;90.40;;;;;;5120235;28;20051;-54
2021/05/11 12:39:14;;;;;;;2.42;1.05;;;25.60;90.50;;;;;;5132279;28;20031;-54
2021/05/11 12:41:40;;;;;;;4.65;1.20;;;25.60;90.40;;;;;;5125864;28;20219;-55
2021/05/11 12:44:07;;;;;;;1.70;0.88;;;25.60;90.40;;;;;;5125100;28;20020;-54
2021/05/11 12:46:38;;;;;;;4.53;1.20;;;25.60;90.40;;;;;;5123613;28;20080;-52
2021/05/11 12:49:16;;;;;;;3.47;1.20;;;25.70;90.50;;;;;;5123814;28;20028;-57
2021/05/11 12:51:49;;;;;;;4.63;0.95;;;25.70;90.40;;;;;;5122409;28;20201;-52
2021/05/11 12:54:45;;;;;;;5.03;1.42;;;25.70;90.40;;;;;;5121573;28;20300;-52
2021/05/11 13:14:28;;;;;;;4.85;1.15;;;25.70;90.20;;;;;;5123282;28;20200;-52
2021/05/11 13:22:41;;;;;;;4.60;1.40;;;25.80;90.50;;;;;;5074468;28;20070;-53
2021/05/11 13:25:27;;;;;;;4.65;1.20;;;25.80;90.60;;;;;;5099906;28;20274;-58
2021/05/11 13:33:03;;;;;;;6.03;1.17;;;25.70;90.70;;;;;;5127424;28;20137;-55
2021/05/11 13:35:30;;;;;;;6.95;1.30;;;25.80;90.80;;;;;;5127256;28;20049;-53
2021/05/11 13:37:56;;;;;;;4.10;1.10;;;25.80;90.90;;;;;;5109811;28;20027;-54
2021/05/11 13:40:23;;;;;;;3.03;1.08;;;25.70;90.90;;;;;;5128027;28;20020;-54
2021/05/11 13:42:51;;;;;;;6.28;1.23;;;25.80;90.90;;;;;;5127666;28;20197;-54
2021/05/11 13:45:18;;;;;;;10.85;1.10;;;25.70;90.90;;;;;;5109627;28;20239;-55
2021/05/11 13:48:10;;;;;;;8.32;1.58;;;25.80;91.00;;;;;;5127877;28;20018;-54
2021/05/11 13:53:25;;;;;;;5.20;1.30;;;25.80;91.10;;;;;;5098673;28;20043;-55
2021/05/11 14:03:51;;;;;;;5.75;1.45;;;25.80;91.20;;;;;;5127522;28;20035;-53
2021/05/11 14:06:18;;;;;;;6.32;1.85;;;25.80;91.30;;;;;;5127191;28;20012;-54
2021/05/11 14:08:44;;;;;;;7.50;1.73;;;25.80;91.30;;;;;;5127202;28;20123;-50
2021/05/11 14:11:11;;;;;;;5.45;1.75;;;25.80;91.40;;;;;;5127104;28;20543;-55
2021/05/11 14:13:37;;;;;;;5.40;1.55;;;25.90;91.40;;;;;;5127198;28;20212;-51
2021/05/11 14:16:04;;;;;;;6.93;1.45;;;25.90;91.40;;;;;;5127097;28;20451;-51
2021/05/11 14:18:31;;;;;;;6.15;1.30;;;25.90;91.40;;;;;;5127094;28;20297;-49
2021/05/11 14:20:58;;;;;;;5.40;1.50;;;25.90;91.30;;;;;;5127308;28;20019;-55
2021/05/11 14:23:26;;;;;;;6.97;1.50;;;25.90;91.30;;;;;;5127178;28;20020;-51
2021/05/11 14:25:53;;;;;;;6.07;1.85;;;25.90;91.30;;;;;;5127297;28;20260;-52
2021/05/11 14:28:20;;;;;;;5.30;1.80;;;25.90;91.30;;;;;;5126713;28;20027;-55
2021/05/11 14:30:47;;;;;;;5.45;1.70;;;26.00;91.40;;;;;;5126773;28;20083;-51
2021/05/11 14:33:13;;;;;;;6.20;1.73;;;26.00;91.40;;;;;;5126907;28;20300;-53
2021/05/11 14:35:40;;;;;;;4.13;1.67;;;26.00;91.50;;;;;;5126544;28;20023;-57
2021/05/11 14:38:07;;;;;;;7.30;2.05;;;26.00;91.50;;;;;;5126762;28;20019;-57
2021/05/11 14:40:34;;;;;;;5.90;1.80;;;26.00;91.50;;;;;;5126471;28;20031;-56
2021/05/11 14:43:00;;;;;;;7.57;1.83;;;26.10;91.50;;;;;;5126556;28;20019;-51
2021/05/11 14:45:27;;;;;;;4.97;2.08;;;26.10;91.60;;;;;;5126494;28;20019;-52
2021/05/11 14:47:54;;;;;;;4.30;1.50;;;26.20;91.40;;;;;;5126745;28;20259;-60
2021/05/11 14:50:22;;;;;;;7.07;1.92;;;26.20;91.30;;;;;;5126443;28;20024;-52
2021/05/11 14:52:53;;;;;;;5.63;1.65;;;26.30;91.40;;;;;;5126378;28;20178;-57
2021/05/11 14:55:24;;;;;;;8.57;2.00;;;26.30;91.30;;;;;;5126078;28;20019;-51
2021/05/11 14:57:51;;;;;;;6.70;1.95;;;26.30;91.40;;;;;;5125773;28;20023;-54
2021/05/11 15:00:18;;;;;;;7.30;1.83;;;26.40;91.30;;;;;;5125865;28;20027;-57
2021/05/11 15:02:45;;;;;;;11.40;2.10;;;26.40;91.10;;;;;;5125745;28;20031;-54
2021/05/11 15:05:12;;;;;;;9.55;2.00;;;26.50;91.20;;;;;;5125301;28;20059;-52
2021/05/11 15:07:39;;;;;;;7.60;1.73;;;26.50;91.10;;;;;;5125725;28;20232;-55
2021/05/11 15:10:07;;;;;;;5.97;2.15;;;26.60;91.00;;;;;;5126256;28;20304;-52
2021/05/11 15:12:34;;;;;;;7.28;1.92;;;26.60;90.80;;;;;;5125674;28;20019;-52
2021/05/11 15:15:01;;;;;;;10.38;1.92;;;26.60;90.40;;;;;;5125281;28;20027;-56
2021/05/11 15:19:57;;;;;;;6.50;2.17;;;26.60;90.30;;;;;;5124910;28;20020;-51
2021/05/11 15:22:25;;;;;;;9.23;1.88;;;26.70;90.40;;;;;;5124962;28;20016;-55
2021/05/11 15:24:52;;;;;;;8.32;1.60;;;26.70;90.50;;;;;;5125097;28;20039;-55
2021/05/11 15:27:19;;;;;;;10.38;1.95;;;26.70;90.50;;;;;;5125635;28;20031;-50
2021/05/11 15:29:47;;;;;;;13.75;2.20;;;26.70;90.50;;;;;;5125974;28;20027;-56
2021/05/11 15:32:38;;;;;;;10.05;2.15;;;26.60;90.50;;;;;;5125620;28;20028;-59
2021/05/11 15:35:07;;;;;;;12.30;2.65;;;26.70;90.60;;;;;;5125688;28;20046;-59
2021/05/11 15:37:33;;;;;;;10.88;2.00;;;26.70;90.40;;;;;;5125389;28;20043;-59
2021/05/11 15:40:00;;;;;;;13.23;2.20;;;26.70;90.40;;;;;;5125675;28;20015;-59
2021/05/11 15:42:27;;;;;;;10.82;2.13;;;26.70;90.40;;;;;;5124811;28;20026;-59
2021/05/11 15:44:54;;;;;;;9.85;2.00;;;26.70;90.60;;;;;;5125819;28;20034;-51
2021/05/11 15:47:20;;;;;;;8.88;2.00;;;26.70;90.30;;;;;;5124999;28;20335;-55
2021/05/11 15:49:47;;;;;;;10.18;2.53;;;26.70;90.30;;;;;;5125791;28;20057;-54
2021/05/11 15:52:14;;;;;;;6.88;1.73;;;26.70;90.20;;;;;;5125056;28;20299;-52
2021/05/11 15:54:41;;;;;;;8.43;2.33;;;26.70;90.20;;;;;;5125143;28;20027;-52
2021/05/11 15:57:08;;;;;;;9.55;2.47;;;26.70;90.10;;;;;;5124883;28;20043;-54
2021/05/11 15:59:34;;;;;;;8.95;1.90;;;26.70;90.10;;;;;;5125569;28;20042;-56
2021/05/11 16:02:01;;;;;;;101.97;9.80;;;26.80;90.00;;;;;;5125102;28;20020;-56
2021/05/11 16:04:28;;;;;;;35.05;4.00;;;26.80;90.00;;;;;;5124804;28;20035;-56
2021/05/11 16:06:55;;;;;;;25.60;2.88;;;26.80;89.70;;;;;;5125150;28;20043;-55
2021/05/11 16:09:24;;;;;;;21.65;3.60;;;26.90;89.60;;;;;;5125585;28;20058;-58
2021/05/11 16:11:51;;;;;;;18.73;2.90;;;26.90;89.60;;;;;;5124925;28;20196;-52
2021/05/11 16:14:18;;;;;;;20.73;2.63;;;26.90;89.30;;;;;;5124881;28;20050;-55
2021/05/11 16:16:45;;;;;;;10.15;2.40;;;27.00;90.00;;;;;;5125015;28;20023;-52
2021/05/11 16:19:11;;;;;;;12.98;2.50;;;27.00;89.30;;;;;;5125131;28;20121;-51
2021/05/11 16:21:38;;;;;;;12.55;1.70;;;27.10;88.90;;;;;;5124721;28;20019;-58
2021/05/11 16:24:05;;;;;;;11.38;2.10;;;27.20;88.00;;;;;;5124148;28;20290;-52
2021/05/11 16:26:32;;;;;;;8.95;1.90;;;27.30;88.30;;;;;;5124781;28;20029;-51
2021/05/11 16:28:59;;;;;;;10.90;1.83;;;27.30;88.10;;;;;;5124915;28;20026;-52
2021/05/11 16:31:26;;;;;;;10.45;2.00;;;27.30;87.90;;;;;;5124786;28;20012;-51
2021/05/11 16:33:53;;;;;;;6.88;1.70;;;27.30;87.70;;;;;;5125212;28;20027;-52
2021/05/11 16:36:19;;;;;;;7.85;2.00;;;27.30;87.90;;;;;;5124254;28;20058;-52
2021/05/11 16:38:46;;;;;;;9.80;2.15;;;27.40;87.10;;;;;;5124884;28;20172;-51
2021/05/11 16:41:12;;;;;;;8.27;1.92;;;27.40;87.00;;;;;;5124262;28;20039;-54
2021/05/11 16:43:39;;;;;;;10.20;1.92;;;27.40;87.00;;;;;;5124208;28;20062;-56
2021/05/11 16:46:06;;;;;;;11.13;2.47;;;27.50;87.10;;;;;;5124331;28;20015;-52
2021/05/11 16:48:34;;;;;;;8.80;1.83;;;27.50;88.00;;;;;;5124903;28;20072;-55
2021/05/11 16:51:03;;;;;;;7.70;1.83;;;27.50;87.60;;;;;;5124495;28;20216;-50
2021/05/11 16:53:30;;;;;;;8.82;2.00;;;27.50;87.50;;;;;;5124652;28;20094;-53
2021/05/11 16:55:57;;;;;;;7.90;2.17;;;27.50;87.90;;;;;;5124749;28;20023;-55
2021/05/11 16:58:24;;;;;;;13.73;2.38;;;27.60;87.60;;;;;;5126168;28;20038;-55
2021/05/11 17:00:50;;;;;;;9.95;2.50;;;27.60;87.10;;;;;;5128502;28;20087;-55
2021/05/11 17:03:19;;;;;;;7.80;2.10;;;27.70;86.70;;;;;;5128454;28;20032;-52
2021/05/11 17:05:46;;;;;;;13.25;1.92;;;27.70;86.70;;;;;;5127877;28;20019;-56
2021/05/11 17:08:12;;;;;;;9.15;2.33;;;27.70;85.90;;;;;;5128057;28;20101;-60
2021/05/11 17:10:41;;;;;;;13.02;2.10;;;27.80;86.10;;;;;;5128345;28;20196;-57
2021/05/11 17:13:08;;;;;;;9.70;2.17;;;27.80;85.80;;;;;;5127820;28;20055;-51
2021/05/11 17:15:36;;;;;;;13.98;2.40;;;27.80;85.50;;;;;;5128096;28;20027;-52
2021/05/11 17:18:05;;;;;;;12.95;2.20;;;27.80;85.40;;;;;;5127759;28;20023;-54
2021/05/11 17:20:34;;;;;;;11.77;2.30;;;27.90;85.60;;;;;;5127640;28;20019;-55
2021/05/11 17:23:02;;;;;;;11.77;2.38;;;27.80;84.80;;;;;;5127637;28;20028;-54